Aircraft
UPR1037 PT-BAB ATR-72 500
SNQG
Cangapara Airport
SWGN
Araguaína Airport
Pilot:: Klebson
Aircraft:: ATR 72-600
Alternate: SBAA
Network: ivao
FLIGHT DETAILS
Distance: 309nm Duration 00h 22m
Cruise Speed: Flight Level: 10000
Validation: Validated Type Charter
Flight Fuel
ZFW: 20947
Block Fuel/Initial FOB: 2551
Flight Fuel: 2083
Cargo
Passengers: 25
Cargo: 120
ROUTE
ROUTE: DCT
REMARKS:
DATE
Date: 26-04-28
Departure Time: 1908
Cargo: 120
FLIGHT DETAILS
Crashed: No
Validator Comments: Validado por Claudenir
Flight Rating: 100
LANDING ANALYSIS
Landing wind: 271º/1 kt
Landing heading: 276º
Landing VS:: -35 ft/min
Landing IAS:: 95 kt
Landing Force G: 1.1 G
Landing Bank: 0
Landing Pitch: 1
Landing Flaps: 100
Navigation Lights: ON
Landing Lights: ON
Beacon Lights: ON
Strobe Lights: ON
viserfly

ALTITUDE CHART

viserfly

MAIN EVENTS

DATE EVENT IAS ALTITUDE
2026-04-28 19:08:32 FLYacars version 1.3.4 0 687
2026-04-28 19:08:32 Aircraft boarding in progress 0 687
2026-04-28 19:08:32 FLAPS 50% 0 687
2026-04-28 19:08:40 Aircraft taxiing to runway 4 687
2026-04-28 19:08:53 Detected Take-off roll, HDG 345, IAS 104kt, GS 107kt, G-force 1.0g, Pitch -0.1deg, Bank -0.1deg, Wind 270/01kt, Temp 14°C 104 692
2026-04-28 19:08:53 Airborne 104 692
2026-04-28 19:08:55 Gear UP, IAS 117kt, GS 118kt, ALT 36ft AGL 117 724
2026-04-28 19:09:10 FLAPS 0% 129kt, ALT 1603ft 129 1603
2026-04-28 19:11:42 Aircraft on Top Of Climb at 9901ft, IAS 237kt, GS 272kt, HDG 284deg, TAT -3deg, WIND 271/2kt 237 9901
2026-04-28 19:28:34 Aircraft on Top Of Descent at 9492ft, IAS 233kt, GS 266kt, HDG 290deg, TAT -2deg, WIND 270/2kt 233 9492
2026-04-28 19:30:23 Gear DOWN, IAS 164kt, GS 170kt, ALT 2176ft AGL 164 2963
2026-04-28 19:30:25 FLAPS 50% 163kt, ALT 2900ft 163 2900
2026-04-28 19:31:13 FLAPS 100% 135kt, ALT 1255ft 135 1255
2026-04-28 19:31:51 Landed at destination with a landing rate of -35fpm, G-force 1.1g, Pitch 0.7deg, Bank 0.3deg, HDG 276deg, IAS 95kt, GS 95kt, Wind 271/01kt, Temp 15°C 95 765
2026-04-28 19:32:03 Aircraft taxiing to apron 20 776
2026-04-28 19:32:13 Aircraft at gate/stand, ground services are moving into position, disembarkation has begun. Remaining FOB 468kg FLYacars v1.3.4 0 777
viserfly

ACARS DATA

DATE IAS GS ALTITUDE FUEL CONSUMED OAT FLIGHT STATUS
2026-04-28 19:09:02 127 123 1035 1163 14 TAKEOFF
2026-04-28 19:09:32 210 216 2266 1173 11 INITIAL CLIMB
2026-04-28 19:10:02 231 244 4166 1188 8 CLIMB
2026-04-28 19:10:32 226 245 6066 1202 4 CLIMB
2026-04-28 19:11:02 223 249 7965 1216 0 CLIMB
2026-04-28 19:11:32 226 259 9722 1229 -3 CLIMB
2026-04-28 19:12:02 243 280 9983 1243 -3 ENROUTE
2026-04-28 19:12:32 245 283 9997 1257 -3 ENROUTE
2026-04-28 19:13:02 245 283 9999 1271 -3 ENROUTE
2026-04-28 19:13:32 246 283 9998 1285 -3 ENROUTE
2026-04-28 19:14:02 246 283 9999 1299 -3 ENROUTE
2026-04-28 19:14:32 246 283 10000 1313 -3 ENROUTE
2026-04-28 19:15:02 245 283 9997 1327 -3 ENROUTE
2026-04-28 19:15:32 245 283 9999 1341 -3 ENROUTE
2026-04-28 19:16:02 245 283 10000 1355 -3 ENROUTE
2026-04-28 19:16:32 245 283 10000 1369 -3 ENROUTE
2026-04-28 19:17:02 245 282 9999 1382 -3 ENROUTE
2026-04-28 19:17:32 245 283 9998 1396 -3 ENROUTE
2026-04-28 19:18:02 245 283 10000 1410 -2 ENROUTE
2026-04-28 19:18:32 246 283 9998 1432 -2 ENROUTE
2026-04-28 19:19:02 245 283 9999 1460 -2 ENROUTE
2026-04-28 19:19:32 245 283 9999 1488 -3 ENROUTE
2026-04-28 19:20:02 246 283 9999 1516 -3 ENROUTE
2026-04-28 19:20:32 245 283 9998 1544 -3 ENROUTE
2026-04-28 19:21:02 246 283 10000 1571 -2 ENROUTE
2026-04-28 19:21:32 246 283 10001 1599 -3 ENROUTE
2026-04-28 19:22:02 246 283 9999 1627 -3 ENROUTE
2026-04-28 19:22:32 245 283 9998 1655 -2 ENROUTE
2026-04-28 19:23:02 245 284 10000 1683 -1 ENROUTE
2026-04-28 19:23:32 246 284 9996 1710 -2 ENROUTE
2026-04-28 19:24:02 245 284 10000 1738 -1 ENROUTE
2026-04-28 19:24:32 245 284 10000 1766 -1 ENROUTE
2026-04-28 19:25:02 246 284 9997 1794 -2 ENROUTE
2026-04-28 19:25:32 246 284 9999 1822 -2 ENROUTE
2026-04-28 19:26:02 246 283 10000 1850 -2 ENROUTE
2026-04-28 19:26:32 246 283 9995 1877 -2 ENROUTE
2026-04-28 19:27:02 246 283 9999 1905 -2 ENROUTE
2026-04-28 19:27:32 246 283 10000 1933 -3 ENROUTE
2026-04-28 19:28:02 246 283 9999 1961 -3 ENROUTE
2026-04-28 19:28:32 243 278 9700 1988 -3 DESCENT
2026-04-28 19:29:02 218 239 6708 2007 3 DESCENT
2026-04-28 19:29:32 212 224 4023 2027 8 DESCENT
2026-04-28 19:30:02 194 204 3901 2046 9 ENROUTE
2026-04-28 19:30:32 142 146 2636 2062 11 APPROACH
2026-04-28 19:31:02 140 142 1369 2073 13 ON FINAL
2026-04-28 19:31:32 114 114 912 2077 14 ON FINAL
2026-04-28 19:32:02 29 27 776 2081 14 TAXI TO APRON
  • Join our VA!

    It has been 11 years of great learning, friendships, and stories.

  • Sign up now!